This demonstration page uses our WeatherBlox Daily Observations layout. Learn more.

Hourly Observations for October 14, 2020

Temp ( °F °C ) Dew Point ( °F °C ) Humidity (%) Winds ( mph kmh ) Pressure ( in mb ) Visibility ( mi km ) Precip ( " mm )
12:54 am 00:54 Clear 49 9.4 38 3.3 66 66 S 7 11 29.9 1013 10 16.0934 0 0
1:54 am 01:54 Clear 50 10 37 2.8 61 61 S 8 13 29.86 1011 10 16.0934 0 0
2:54 am 02:54 Clear 50 10 38 3.3 63 63 S 9 15 29.81 1010 10 16.0934 0 0
3:54 am 03:54 Clear 49 9.4 38 3.3 66 66 S 9 15 29.76 1008 10 16.0934 0 0
4:54 am 04:54 Clear 55 12.8 39 3.9 55 55 S 10 17 29.7 1006 10 16.0934 0 0
5:54 am 05:54 Clear 59 15 39 3.9 48 48 S 13 20 29.66 1004 10 16.0934 0 0
6:54 am 06:54 Clear 59 15 39 3.9 48 48 SSW 17 28 29.65 1004 10 16.0934 0 0
7:54 am 07:54 Sunny 59 15 40 4.4 49 49 SSW 16 26 29.63 1004 10 16.0934 0.001 0.001
8:44 am 08:44 Sunny 60 15.6 41 5 50 50 W 10 17 29.68 1005 9 14.48406 0 0
8:54 am 08:54 Sunny 61 16.1 41 5 48 48 WSW 10 17 29.68 1005 10 16.0934 0 0
9:54 am 09:54 Sunny 66 18.9 40 4.4 39 39 W 16 26 29.7 1006 10 16.0934 0 0
10:54 am 10:54 Sunny 69 20.6 40 4.4 35 35 NW 14 22 29.72 1006 10 16.0934 0 0
11:54 am 11:54 Sunny 69 20.6 39 3.9 33 33 NW 8 13 29.7 1006 10 16.0934 0 0
12:54 pm 12:54 Sunny 73 22.8 40 4.4 30 30 VRB 7 11 29.71 1006 10 16.0934 0 0
1:54 pm 13:54 Sunny 77 25 38 3.3 24 24 NNW 13 20 29.7 1006 10 16.0934 0 0
2:54 pm 14:54 Sunny 77 25 37 2.8 24 24 NNW 31 50 29.69 1005 10 16.0934 0 0
3:54 pm 15:54 Sunny 72 22.2 34 1.1 25 25 N 29 46 29.72 1007 10 16.0934 0 0
4:54 pm 16:54 Mostly Cloudy 70 21.1 30 -1.1 23 23 NNW 14 22 29.78 1009 10 16.0934 0 0
5:54 pm 17:54 Mostly Cloudy 68 20 29 -1.7 23 23 NW 17 28 29.82 1010 9 14.48406 0 0
6:54 pm 18:54 Mostly Cloudy 65 18.3 29 -1.7 26 26 W 6 9 29.83 1010 9 14.48406 0 0
7:54 pm 19:54 Cloudy 63 17.2 31 -0.6 30 30 WNW 8 13 29.87 1012 8 12.87472 0 0
8:54 pm 20:54 Cloudy 63 17.2 34 1.1 34 34 WNW 14 22 29.9 1012 7 11.26538 0 0
9:54 pm 21:54 Partly Cloudy 61 16.1 36 2.2 39 39 NW 9 15 29.91 1013 8 12.87472 0 0
10:54 pm 22:54 Mostly Clear 59 15 37 2.8 44 44 N 16 26 29.92 1013 10 16.0934 0 0
11:54 pm 23:54 Mostly Clear with Light Rain 55 12.8 37 2.8 51 51 N 16 26 29.98 1015 10 16.0934 0.001 0.001

Powered by AerisWeather